Defiance, Iowa
Current Conditions -  °F | °C
As of 6:15 PM on Saturday 25 Oct 2014 (Local Time) from KDNS Reporting Station
Clear Clear  
Wind Chill: 66°   Ceiling: Unl
Heat Index: 66°   Visibility: 10mi
Dew Point: 34°   Wind: 5mph
Humidity: 30%   Direction: 80°E
Pressure: 30.05"   Gusts: NA
Location:  41.82°N, 95.34°W
Report Text: KDNS 252315Z AUTO 08004KT 10SM CLR 19/01 A3005 RMK AO2
Loading
Personal Weather Stations






























Interactive Weather Map
Tropical Storm Tracking
New forecast layout! Learn more

10-Day Weather Forecast

Advertisements
Track Severe Weather on mobile